Walhain-Saint-Paul, Belgium
Current Conditions -  °F | °C
As of 2:25 PM on Saturday 22 Nov 2014 (Local Time) from EBBE Reporting Station
Clear Clear  
Wind Chill: 57°   Ceiling: Unl
Heat Index: 57°   Visibility: 6mi
Dew Point: 50°   Wind: 7mph
Humidity: 77%   Direction: 190°S
Pressure: 30.03"   Gusts: NA
Location:  50.63°N, 4.7°E
Report Text: EBBE 221325Z AUTO 19006KT 9999 NCD 14/10 Q1017 BLU
Loading
Personal Weather Stations






























Interactive Weather Map New forecast layout! Learn more

10-Day Weather Forecast

Advertisements
Track Severe Weather on mobile